createdAt,value
2019-01-29T00:02:10.354Z,6.58
2019-01-29T00:04:40.678Z,5.20
2019-01-29T00:07:10.256Z,9.98
2019-01-29T00:09:42.906Z,7.60
2019-01-29T00:12:13.070Z,10.68
2019-01-29T00:14:42.970Z,5.72
2019-01-29T00:17:12.947Z,4.58
2019-01-29T00:19:42.759Z,7.85
2019-01-29T00:22:12.422Z,6.60
2019-01-29T00:24:42.229Z,7.33
2019-01-29T00:27:11.921Z,3.90
2019-01-29T00:29:43.315Z,3.77
2019-01-29T00:32:13.062Z,4.97
2019-01-29T00:34:42.838Z,12.75
2019-01-29T00:37:12.705Z,8.65
2019-01-29T00:39:42.461Z,3.95
2019-01-29T00:42:12.060Z,4.65
2019-01-29T00:44:41.565Z,8.48
2019-01-29T00:47:11.230Z,11.55
2019-01-29T00:49:40.749Z,12.43
2019-01-29T00:52:10.295Z,6.35
2019-01-29T00:54:39.988Z,7.45
2019-01-29T00:57:09.640Z,7.78
2019-01-29T00:59:39.295Z,5.45
2019-01-29T01:02:08.855Z,7.22
2019-01-29T01:04:38.390Z,4.10
2019-01-29T01:07:08.173Z,5.75
2019-01-29T01:09:37.765Z,4.08
2019-01-29T01:12:07.418Z,5.10
2019-01-29T01:14:37.003Z,6.95
2019-01-29T01:17:06.806Z,6.58
2019-01-29T01:19:36.417Z,8.53
2019-01-29T01:22:06.062Z,10.23
2019-01-29T01:24:35.696Z,7.85
2019-01-29T01:27:05.407Z,8.08
2019-01-29T01:29:35.059Z,8.38
2019-01-29T01:32:04.802Z,9.30
2019-01-29T01:34:34.324Z,13.70
2019-01-29T01:37:04.143Z,8.00
2019-01-29T01:39:33.746Z,12.63
2019-01-29T01:42:03.898Z,6.90
2019-01-29T01:44:33.800Z,8.50
2019-01-29T01:47:03.317Z,7.35
2019-01-29T01:49:32.994Z,5.35
2019-01-29T01:52:02.808Z,8.55
2019-01-29T01:54:32.374Z,7.05
2019-01-29T01:57:05.164Z,6.80
2019-01-29T01:59:34.817Z,4.67
2019-01-29T02:02:04.581Z,3.92
2019-01-29T02:04:34.119Z,8.58
2019-01-29T02:07:03.908Z,11.33
2019-01-29T02:09:33.542Z,9.63
2019-01-29T02:12:03.182Z,5.92
2019-01-29T02:14:33.198Z,7.33
2019-01-29T02:17:02.779Z,9.10
2019-01-29T02:19:32.379Z,5.05
2019-01-29T02:22:02.072Z,13.90
2019-01-29T02:24:31.608Z,4.78
2019-01-29T02:27:01.220Z,3.20
2019-01-29T02:29:30.696Z,8.53
2019-01-29T02:32:00.419Z,6.72
2019-01-29T02:34:29.928Z,6.45
2019-01-29T02:36:59.620Z,12.40
2019-01-29T02:39:29.233Z,6.15
2019-01-29T02:41:58.866Z,5.15
2019-01-29T02:44:28.572Z,3.85
2019-01-29T02:46:58.150Z,7.28
2019-01-29T02:49:27.909Z,2.85
2019-01-29T02:51:57.584Z,4.37
2019-01-29T02:54:27.861Z,12.10
2019-01-29T02:56:57.593Z,17.70
2019-01-29T02:59:27.343Z,11.85
2019-01-29T03:01:57.249Z,6.65
2019-01-29T03:04:26.903Z,5.58
2019-01-29T03:06:56.609Z,4.30
2019-01-29T03:09:26.642Z,6.75
2019-01-29T03:11:56.197Z,13.70
2019-01-29T03:14:25.896Z,9.33
2019-01-29T03:16:55.614Z,4.78
2019-01-29T03:19:25.218Z,4.30
2019-01-29T03:21:54.886Z,5.00
2019-01-29T03:24:24.561Z,4.22
2019-01-29T03:26:54.277Z,8.83
2019-01-29T03:29:23.863Z,8.08
2019-01-29T03:31:53.332Z,7.60
2019-01-29T03:34:22.876Z,6.53
2019-01-29T03:36:52.379Z,7.72
2019-01-29T03:39:22.007Z,12.28
2019-01-29T03:41:52.142Z,3.40
2019-01-29T03:44:21.719Z,6.00
2019-01-29T03:46:51.290Z,7.72
2019-01-29T03:49:20.830Z,13.18
2019-01-29T03:51:50.682Z,13.25
2019-01-29T03:54:20.189Z,9.25
2019-01-29T03:56:49.953Z,6.25
2019-01-29T03:59:19.831Z,10.45
2019-01-29T04:01:49.363Z,7.40
2019-01-29T04:04:19.027Z,9.33
2019-01-29T04:06:48.527Z,9.50
2019-01-29T04:09:18.468Z,20.62
2019-01-29T04:11:47.997Z,12.98
2019-01-29T04:14:17.707Z,12.18
2019-01-29T04:16:47.423Z,12.55
2019-01-29T04:19:16.952Z,17.17
2019-01-29T04:21:46.532Z,7.75
2019-01-29T04:24:16.035Z,13.85
2019-01-29T04:26:47.284Z,14.30
2019-01-29T04:29:16.890Z,8.58
2019-01-29T04:31:46.494Z,10.00
2019-01-29T04:34:16.033Z,11.75
2019-01-29T04:36:45.708Z,12.00
2019-01-29T04:39:15.332Z,9.58
2019-01-29T04:41:44.931Z,15.85
2019-01-29T04:44:14.573Z,14.18
2019-01-29T04:46:44.143Z,20.60
2019-01-29T04:49:13.994Z,9.70
2019-01-29T04:51:44.114Z,9.90
2019-01-29T04:54:14.091Z,12.90
2019-01-29T04:56:43.696Z,9.63
2019-01-29T04:59:13.796Z,17.73
2019-01-29T05:01:44.094Z,11.53
2019-01-29T05:04:13.716Z,9.88
2019-01-29T05:06:43.357Z,13.43
2019-01-29T05:09:13.308Z,15.18
2019-01-29T05:11:42.892Z,21.25
2019-01-29T05:14:12.539Z,7.17
2019-01-29T05:16:42.197Z,20.25
2019-01-29T05:19:11.829Z,14.05
2019-01-29T05:21:41.401Z,12.95
2019-01-29T05:24:11.070Z,19.70
2019-01-29T05:26:41.624Z,19.12
2019-01-29T05:29:11.335Z,9.08
2019-01-29T05:31:41.148Z,11.18
2019-01-29T05:34:11.643Z,27.35
2019-01-29T05:36:41.720Z,16.05
2019-01-29T05:39:12.461Z,14.73
2019-01-29T05:41:42.629Z,17.05
2019-01-29T05:44:12.779Z,13.45
2019-01-29T05:46:42.865Z,16.67
2019-01-29T05:49:12.336Z,11.90
2019-01-29T05:51:42.949Z,17.00
2019-01-29T05:54:16.443Z,14.47
2019-01-29T05:56:43.730Z,12.13
2019-01-29T05:59:13.315Z,13.53
2019-01-29T06:01:43.290Z,16.40
2019-01-29T06:04:13.373Z,17.60
2019-01-29T06:06:47.179Z,13.00
2019-01-29T06:09:19.628Z,21.55
2019-01-29T06:11:49.311Z,12.73
2019-01-29T06:14:18.927Z,13.95
2019-01-29T06:16:48.599Z,17.05
2019-01-29T06:19:18.273Z,11.53
2019-01-29T06:21:47.892Z,12.82
2019-01-29T06:24:25.553Z,21.00
2019-01-29T06:26:48.830Z,15.88
2019-01-29T06:29:18.486Z,20.50
2019-01-29T06:31:48.250Z,18.60
2019-01-29T06:34:17.881Z,13.78
2019-01-29T06:36:50.921Z,23.22
2019-01-29T06:39:20.692Z,17.00
2019-01-29T06:41:50.421Z,17.27
2019-01-29T06:44:20.039Z,17.35
2019-01-29T06:46:49.504Z,17.75
2019-01-29T06:49:19.159Z,22.90
2019-01-29T06:51:48.795Z,16.52
2019-01-29T06:54:18.303Z,20.80
2019-01-29T06:56:47.915Z,19.25
2019-01-29T06:59:17.427Z,23.07
2019-01-29T07:01:47.117Z,23.32
2019-01-29T07:04:16.692Z,16.32
2019-01-29T07:06:46.846Z,22.42
2019-01-29T07:09:16.921Z,31.05
2019-01-29T07:11:49.073Z,21.17
2019-01-29T07:14:18.779Z,21.42
2019-01-29T07:17:03.950Z,34.38
2019-01-29T07:22:55.258Z,17.12
2019-01-29T07:25:25.212Z,21.10
2019-01-29T07:28:03.041Z,17.92
2019-01-29T07:30:32.799Z,21.60
2019-01-29T07:33:02.622Z,27.27
2019-01-29T07:35:32.654Z,23.60
2019-01-29T07:38:11.446Z,19.32
2019-01-29T07:40:40.920Z,18.07
2019-01-29T07:43:10.784Z,22.65
2019-01-29T07:45:43.686Z,23.83
2019-01-29T07:48:13.435Z,22.93
2019-01-29T07:50:43.539Z,20.27
2019-01-29T07:53:13.605Z,17.50
2019-01-29T07:55:45.736Z,19.85
2019-01-29T07:58:21.830Z,14.28
2019-01-29T08:01:12.650Z,15.45
2019-01-29T08:03:42.633Z,16.70
2019-01-29T08:06:32.559Z,18.77
2019-01-29T08:09:08.898Z,22.75
2019-01-29T08:11:39.315Z,19.07
2019-01-29T08:14:09.263Z,22.77
2019-01-29T08:16:38.941Z,19.05
2019-01-29T08:19:08.796Z,20.48
2019-01-29T08:21:38.822Z,15.68
2019-01-29T08:24:08.363Z,13.08
2019-01-29T08:26:38.231Z,15.03
2019-01-29T08:29:07.895Z,25.23
2019-01-29T08:31:38.569Z,31.45
2019-01-29T08:34:09.416Z,23.10
2019-01-29T08:36:39.180Z,34.55
2019-01-29T08:39:09.606Z,19.95
2019-01-29T08:41:39.210Z,24.87
2019-01-29T08:44:08.881Z,18.23
2019-01-29T08:46:38.611Z,22.80
2019-01-29T08:49:08.161Z,19.40
2019-01-29T08:51:37.789Z,19.77
2019-01-29T08:54:07.357Z,26.33
2019-01-29T08:56:36.841Z,24.47
2019-01-29T08:59:14.475Z,17.10
2019-01-29T09:02:44.260Z,21.30
2019-01-29T09:05:19.651Z,18.67
2019-01-29T09:08:37.262Z,21.42
2019-01-29T09:11:56.739Z,28.90
2019-01-29T09:18:03.207Z,27.37
2019-01-29T09:21:01.775Z,25.48
2019-01-29T09:23:56.234Z,39.83
2019-01-29T09:26:45.725Z,28.75
2019-01-29T09:29:17.844Z,29.65
2019-01-29T09:31:53.272Z,33.10
2019-01-29T09:34:25.308Z,32.03
2019-01-29T09:36:57.779Z,30.92
2019-01-29T09:39:47.963Z,30.05
2019-01-29T09:42:18.573Z,25.52
2019-01-29T09:44:49.175Z,29.42
2019-01-29T09:47:28.517Z,26.97
2019-01-29T09:53:30.288Z,30.75
2019-01-29T09:56:00.610Z,43.60
2019-01-29T09:58:38.805Z,28.95
2019-01-29T10:01:12.710Z,34.45
2019-01-29T10:03:43.258Z,26.62
2019-01-29T10:06:16.299Z,35.95
2019-01-29T10:12:25.107Z,29.42
2019-01-29T10:14:54.752Z,34.50
2019-01-29T10:17:39.955Z,29.10
2019-01-29T10:20:34.140Z,28.77
2019-01-29T10:23:25.030Z,33.05
2019-01-29T10:25:55.319Z,26.00
2019-01-29T10:33:04.157Z,34.30
2019-01-29T10:35:44.068Z,31.85
2019-01-29T10:38:13.860Z,35.30
2019-01-29T10:40:45.717Z,33.25
2019-01-29T10:43:16.183Z,29.15
2019-01-29T10:45:46.221Z,30.40
2019-01-29T10:48:16.031Z,38.53
2019-01-29T10:50:45.978Z,43.58
2019-01-29T10:53:15.904Z,32.78
2019-01-29T10:55:47.523Z,36.08
2019-01-29T10:58:17.215Z,33.30
2019-01-29T11:00:47.074Z,50.23
2019-01-29T11:03:16.950Z,39.03
2019-01-29T11:05:46.759Z,30.80
2019-01-29T11:08:17.059Z,47.03
2019-01-29T11:10:47.032Z,42.10
2019-01-29T11:13:17.037Z,39.65
2019-01-29T11:15:47.089Z,45.90
2019-01-29T11:18:21.324Z,88.35
2019-01-29T11:20:51.457Z,36.17
2019-01-29T11:23:22.459Z,36.17
2019-01-29T11:25:56.044Z,45.70
2019-01-29T11:28:24.021Z,39.60
2019-01-29T11:30:53.735Z,39.63
2019-01-29T11:33:23.640Z,44.00
2019-01-29T11:35:54.867Z,35.13
2019-01-29T11:38:26.225Z,43.35
2019-01-29T11:40:56.861Z,40.45
2019-01-29T11:43:38.597Z,37.05
2019-01-29T11:47:16.167Z,39.83
2019-01-29T11:50:29.612Z,31.45
2019-01-29T11:52:59.804Z,30.57
2019-01-29T11:55:29.937Z,39.90
2019-01-29T11:58:00.203Z,28.95
2019-01-29T12:00:35.500Z,84.15
2019-01-29T12:03:05.695Z,42.45
2019-01-29T12:05:36.798Z,37.28
2019-01-29T12:08:07.153Z,27.22
2019-01-29T12:10:37.373Z,31.90
2019-01-29T12:13:07.920Z,29.92
2019-01-29T12:15:37.768Z,29.40
2019-01-29T12:18:08.755Z,26.62
2019-01-29T12:20:38.476Z,31.05
2019-01-29T12:23:08.657Z,29.35
2019-01-29T12:25:38.437Z,28.85
2019-01-29T12:28:08.078Z,27.00
2019-01-29T12:30:37.766Z,25.77
2019-01-29T12:33:08.965Z,22.20
2019-01-29T12:35:39.117Z,25.15
2019-01-29T12:44:32.420Z,25.85
2019-01-29T12:47:02.180Z,30.37
2019-01-29T12:49:31.911Z,22.85
2019-01-29T12:52:09.566Z,26.07
2019-01-29T12:54:39.332Z,22.65
2019-01-29T12:57:10.648Z,22.10
2019-01-29T12:59:43.200Z,28.15
2019-01-29T13:02:34.343Z,25.43
2019-01-29T13:05:04.420Z,29.30
2019-01-29T13:07:37.934Z,22.58
2019-01-29T13:10:11.144Z,24.23
2019-01-29T13:12:40.890Z,27.62
2019-01-29T13:15:11.814Z,26.55
2019-01-29T13:17:41.885Z,19.73
2019-01-29T13:20:14.248Z,27.73
2019-01-29T13:22:44.282Z,18.98
2019-01-29T13:25:14.459Z,19.65
2019-01-29T13:27:45.379Z,22.32
2019-01-29T13:30:20.638Z,19.37
2019-01-29T13:32:51.334Z,24.90
2019-01-29T13:35:22.992Z,18.45
2019-01-29T13:37:53.815Z,18.40
2019-01-29T13:40:23.887Z,17.87
2019-01-29T13:42:53.898Z,14.63
2019-01-29T13:45:24.336Z,14.63
2019-01-29T13:51:21.495Z,11.80
2019-01-29T13:53:56.013Z,10.60
2019-01-29T13:56:25.888Z,19.67
2019-01-29T13:58:56.320Z,14.55
2019-01-29T14:01:26.029Z,22.10
2019-01-29T14:03:55.769Z,15.05
2019-01-29T14:06:25.485Z,6.70
2019-01-29T14:08:55.294Z,14.18
2019-01-29T14:11:25.748Z,6.12
2019-01-29T14:13:55.422Z,8.75
2019-01-29T14:16:25.111Z,10.70
2019-01-29T14:18:54.956Z,8.13
2019-01-29T14:21:24.613Z,9.95
2019-01-29T14:23:54.434Z,13.98
2019-01-29T14:26:24.216Z,8.15
2019-01-29T14:28:54.270Z,12.05
2019-01-29T14:31:24.424Z,11.65
2019-01-29T14:33:53.999Z,11.03
2019-01-29T14:36:25.271Z,7.90
2019-01-29T14:39:34.517Z,16.20
2019-01-29T14:42:04.262Z,7.90
2019-01-29T14:44:36.901Z,12.73
2019-01-29T14:47:06.683Z,8.10
2019-01-29T14:49:36.316Z,10.45
2019-01-29T14:52:06.002Z,15.08
2019-01-29T14:54:35.712Z,11.68
2019-01-29T14:57:05.355Z,20.92
2019-01-29T14:59:36.593Z,13.13
2019-01-29T15:02:07.264Z,20.32
2019-01-29T15:04:38.881Z,14.90
2019-01-29T15:07:10.362Z,12.47
2019-01-29T15:09:39.527Z,12.75
2019-01-29T15:12:09.442Z,15.43
2019-01-29T15:14:39.202Z,12.28
2019-01-29T15:17:26.323Z,15.65
2019-01-29T15:19:56.097Z,19.50
2019-01-29T15:22:26.290Z,33.80
2019-01-29T15:24:56.261Z,28.85
2019-01-29T15:27:26.414Z,59.48
2019-01-29T15:29:56.135Z,27.75
2019-01-29T15:32:26.788Z,17.27
2019-01-29T15:34:56.468Z,28.52
2019-01-29T15:37:26.001Z,14.38
2019-01-29T15:39:55.692Z,10.55
2019-01-29T15:42:25.734Z,12.30
2019-01-29T15:44:55.645Z,17.75
2019-01-29T15:47:25.396Z,11.43
2019-01-29T15:49:55.015Z,7.30
2019-01-29T15:52:24.844Z,11.50
2019-01-29T15:54:54.654Z,8.85
2019-01-29T15:57:25.943Z,10.40
2019-01-29T15:59:55.729Z,9.30
2019-01-29T16:02:25.699Z,8.93
2019-01-29T16:04:55.447Z,16.75
2019-01-29T16:07:25.167Z,19.00
2019-01-29T16:09:54.927Z,10.63
2019-01-29T16:12:24.750Z,17.07
2019-01-29T16:14:54.479Z,20.20
2019-01-29T16:17:24.599Z,17.07
2019-01-29T16:19:54.143Z,15.30
2019-01-29T16:22:24.072Z,23.80
2019-01-29T16:24:53.710Z,21.07
2019-01-29T16:27:23.295Z,14.25
2019-01-29T16:29:53.022Z,17.17
2019-01-29T16:32:22.730Z,10.72
2019-01-29T16:34:52.608Z,12.47
2019-01-29T16:37:22.402Z,15.55
2019-01-29T16:39:51.968Z,14.93
2019-01-29T16:42:21.538Z,14.93
2019-01-29T16:44:51.053Z,19.23
2019-01-29T16:47:20.622Z,14.20
2019-01-29T16:49:50.293Z,14.95
2019-01-29T16:52:19.778Z,10.80
2019-01-29T16:54:49.411Z,13.38
2019-01-29T16:57:18.907Z,11.43
2019-01-29T16:59:48.447Z,12.65
2019-01-29T17:02:18.014Z,13.03
2019-01-29T17:04:47.575Z,9.73
2019-01-29T17:07:17.273Z,17.42
2019-01-29T17:09:48.629Z,12.00
2019-01-29T17:12:18.648Z,13.40
2019-01-29T17:14:49.853Z,7.78
2019-01-29T17:17:19.999Z,12.82
2019-01-29T17:19:49.683Z,10.72
2019-01-29T17:22:19.715Z,15.00
2019-01-29T17:24:49.390Z,12.50
2019-01-29T17:27:19.253Z,10.23
2019-01-29T17:29:48.896Z,19.25
2019-01-29T17:32:18.506Z,18.82
2019-01-29T17:34:48.421Z,19.30
2019-01-29T17:37:18.207Z,8.23
2019-01-29T17:39:47.943Z,11.73
2019-01-29T17:42:17.668Z,9.70
2019-01-29T17:44:47.372Z,9.70
2019-01-29T17:47:17.162Z,11.97
2019-01-29T17:49:47.469Z,8.53
2019-01-29T17:52:17.217Z,8.55
2019-01-29T17:54:47.045Z,9.80
2019-01-29T17:57:18.037Z,17.67
2019-01-29T17:59:49.177Z,15.63
2019-01-29T18:02:19.633Z,13.68
2019-01-29T18:04:49.360Z,14.25
2019-01-29T18:07:19.155Z,9.53
2019-01-29T18:09:48.927Z,16.97
2019-01-29T18:12:19.068Z,13.85
2019-01-29T18:14:49.044Z,7.92
2019-01-29T18:17:19.950Z,9.30
2019-01-29T18:19:49.816Z,20.00
2019-01-29T18:22:20.101Z,12.00
2019-01-29T18:24:52.119Z,17.12
2019-01-29T18:27:21.440Z,18.50
2019-01-29T18:29:51.800Z,14.40
2019-01-29T18:32:21.920Z,17.52
2019-01-29T18:34:51.875Z,19.62
2019-01-29T18:37:21.575Z,10.85
2019-01-29T18:39:51.337Z,18.70
2019-01-29T18:42:21.905Z,17.42
2019-01-29T18:44:51.904Z,18.15
2019-01-29T18:47:23.245Z,14.55
2019-01-29T18:49:53.458Z,16.57
2019-01-29T18:52:23.840Z,11.30
2019-01-29T18:54:54.675Z,17.65
2019-01-29T18:57:27.048Z,11.08
2019-01-29T18:59:57.171Z,11.35
2019-01-29T19:02:27.640Z,9.80
2019-01-29T19:04:57.518Z,11.22
2019-01-29T19:07:28.137Z,10.82
2019-01-29T19:09:58.321Z,8.73
2019-01-29T19:12:28.685Z,23.25
2019-01-29T19:14:59.213Z,10.38
2019-01-29T19:17:29.597Z,12.50
2019-01-29T19:19:59.625Z,10.70
2019-01-29T19:22:29.539Z,11.70
2019-01-29T19:25:03.948Z,13.28
2019-01-29T19:27:34.099Z,9.43
2019-01-29T19:30:05.214Z,9.88
2019-01-29T19:32:35.331Z,13.22
2019-01-29T19:35:07.299Z,13.85
2019-01-29T19:37:37.382Z,13.15
2019-01-29T19:40:08.040Z,8.93
2019-01-29T19:42:38.442Z,11.97
2019-01-29T19:45:14.755Z,17.05
2019-01-29T19:47:44.645Z,23.02
2019-01-29T19:50:19.572Z,12.28
2019-01-29T19:52:49.706Z,15.30
2019-01-29T19:55:19.243Z,10.05
2019-01-29T19:57:49.147Z,11.68
2019-01-29T20:00:21.587Z,13.18
2019-01-29T20:02:51.149Z,11.30
2019-01-29T20:05:20.859Z,10.95
2019-01-29T20:07:50.630Z,19.77
2019-01-29T20:10:20.341Z,10.90
2019-01-29T20:12:50.139Z,11.83
2019-01-29T20:15:20.418Z,12.23
2019-01-29T20:17:51.749Z,11.20
2019-01-29T20:20:26.532Z,13.40
2019-01-29T20:22:56.141Z,19.65
2019-01-29T20:25:25.792Z,15.03
2019-01-29T20:27:55.556Z,8.65
2019-01-29T20:30:27.197Z,9.38
2019-01-29T20:32:57.076Z,13.20
2019-01-29T20:35:26.672Z,10.23
2019-01-29T20:37:56.148Z,14.83
2019-01-29T20:40:25.993Z,10.63
2019-01-29T20:42:55.627Z,10.70
2019-01-29T20:45:25.924Z,11.08
2019-01-29T20:47:55.413Z,10.60
2019-01-29T20:50:27.568Z,11.38
2019-01-29T20:52:57.181Z,13.68
2019-01-29T20:55:26.700Z,15.48
2019-01-29T20:57:56.671Z,10.00
2019-01-29T21:00:28.759Z,7.47
2019-01-29T21:02:58.733Z,7.55
2019-01-29T21:05:28.797Z,13.75
2019-01-29T21:08:00.598Z,13.50
2019-01-29T21:10:30.326Z,10.45
2019-01-29T21:13:00.621Z,9.33
2019-01-29T21:15:37.919Z,13.35
2019-01-29T21:18:01.992Z,7.55
2019-01-29T21:20:32.435Z,14.55
2019-01-29T21:23:02.525Z,8.23
2019-01-29T21:25:32.524Z,8.23
2019-01-29T21:28:02.581Z,7.95
2019-01-29T21:30:37.438Z,8.08
2019-01-29T21:33:06.967Z,8.73
2019-01-29T21:35:36.673Z,8.35
2019-01-29T21:38:06.438Z,11.30
2019-01-29T21:40:35.979Z,10.75
2019-01-29T21:43:05.489Z,7.40
2019-01-29T21:45:34.958Z,7.60
2019-01-29T21:48:05.151Z,10.20
2019-01-29T21:50:34.938Z,9.35
2019-01-29T21:53:04.828Z,8.20
2019-01-29T21:55:35.589Z,7.28
2019-01-29T21:58:06.025Z,7.50
2019-01-29T22:00:41.190Z,7.05
2019-01-29T22:03:11.080Z,11.28
2019-01-29T22:05:40.912Z,5.92
2019-01-29T22:08:11.322Z,6.87
2019-01-29T22:10:41.467Z,5.55
2019-01-29T22:13:12.629Z,10.58
2019-01-29T22:15:42.340Z,13.85
2019-01-29T22:18:13.694Z,11.20
2019-01-29T22:20:43.232Z,7.58
2019-01-29T22:23:12.830Z,8.28
2019-01-29T22:25:42.402Z,5.92
2019-01-29T22:28:12.436Z,5.97
2019-01-29T22:30:43.386Z,10.88
2019-01-29T22:33:12.919Z,9.03
2019-01-29T22:35:42.439Z,7.65
2019-01-29T22:38:12.048Z,8.20
2019-01-29T22:40:42.008Z,6.70
2019-01-29T22:43:11.645Z,10.23
2019-01-29T22:45:41.202Z,4.65
2019-01-29T22:48:11.080Z,9.85
2019-01-29T22:50:42.372Z,8.13
2019-01-29T22:53:12.636Z,5.70
2019-01-29T22:55:42.538Z,9.33
2019-01-29T22:58:12.885Z,5.95
2019-01-29T23:01:07.258Z,7.47
2019-01-29T23:03:45.265Z,5.92
2019-01-29T23:06:24.069Z,6.70
2019-01-29T23:08:53.811Z,9.08
2019-01-29T23:11:23.385Z,6.08
2019-01-29T23:13:53.988Z,6.92
2019-01-29T23:16:42.727Z,9.50
2019-01-29T23:19:31.458Z,7.00
2019-01-29T23:22:08.741Z,10.15
2019-01-29T23:24:38.808Z,9.25
2019-01-29T23:27:09.821Z,7.95
2019-01-29T23:29:43.669Z,14.53
2019-01-29T23:32:18.498Z,16.15
2019-01-29T23:34:50.124Z,8.65
2019-01-29T23:37:19.641Z,9.98
2019-01-29T23:39:49.150Z,8.63
2019-01-29T23:42:21.272Z,18.05
2019-01-29T23:44:51.137Z,9.13
2019-01-29T23:47:21.060Z,17.15
2019-01-29T23:49:50.673Z,12.88
2019-01-29T23:52:20.417Z,11.45
2019-01-29T23:54:50.103Z,10.40
2019-01-29T23:57:19.663Z,9.98
2019-01-29T23:59:54.169Z,13.98
